sensor_id;sensor_type;location;lat;lon;timestamp;pressure;altitude;pressure_sealevel;temperature;humidity
19831;BME280;10076;52.008;4.708;2023-05-09T00:00:28;101788.13;;;17.79;100.00
19831;BME280;10076;52.008;4.708;2023-05-09T00:02:53;101781.59;;;17.93;100.00
19831;BME280;10076;52.008;4.708;2023-05-09T00:05:19;101780.03;;;17.90;100.00
19831;BME280;10076;52.008;4.708;2023-05-09T00:07:46;101779.81;;;18.02;100.00
19831;BME280;10076;52.008;4.708;2023-05-09T00:10:11;101779.31;;;17.88;100.00
19831;BME280;10076;52.008;4.708;2023-05-09T00:12:36;101779.97;;;17.81;100.00
19831;BME280;10076;52.008;4.708;2023-05-09T00:15:03;101781.69;;;17.61;100.00
19831;BME280;10076;52.008;4.708;2023-05-09T00:17:33;101775.41;;;17.72;100.00
19831;BME280;10076;52.008;4.708;2023-05-09T00:19:58;101771.44;;;17.66;100.00
19831;BME280;10076;52.008;4.708;2023-05-09T00:22:25;101777.69;;;17.76;100.00
19831;BME280;10076;52.008;4.708;2023-05-09T00:24:51;101769.69;;;17.76;100.00
19831;BME280;10076;52.008;4.708;2023-05-09T00:27:16;101769.94;;;17.73;100.00
19831;BME280;10076;52.008;4.708;2023-05-09T00:29:42;101776.50;;;17.69;100.00
19831;BME280;10076;52.008;4.708;2023-05-09T00:32:08;101762.78;;;17.53;100.00
19831;BME280;10076;52.008;4.708;2023-05-09T00:34:33;101744.00;;;17.64;100.00
19831;BME280;10076;52.008;4.708;2023-05-09T00:36:58;101752.59;;;17.68;100.00
19831;BME280;10076;52.008;4.708;2023-05-09T00:39:24;101752.81;;;17.76;100.00
19831;BME280;10076;52.008;4.708;2023-05-09T00:41:54;101756.84;;;17.50;100.00
19831;BME280;10076;52.008;4.708;2023-05-09T00:44:20;101752.91;;;17.54;100.00
19831;BME280;10076;52.008;4.708;2023-05-09T00:46:45;101754.47;;;17.56;100.00
19831;BME280;10076;52.008;4.708;2023-05-09T00:49:10;101735.91;;;17.75;100.00
19831;BME280;10076;52.008;4.708;2023-05-09T00:51:38;101735.53;;;17.59;100.00
19831;BME280;10076;52.008;4.708;2023-05-09T00:54:04;101732.13;;;17.57;100.00
19831;BME280;10076;52.008;4.708;2023-05-09T00:56:29;101735.34;;;17.51;100.00
19831;BME280;10076;52.008;4.708;2023-05-09T00:58:55;101731.63;;;17.63;100.00
19831;BME280;10076;52.008;4.708;2023-05-09T01:01:20;101723.81;;;17.51;100.00
19831;BME280;10076;52.008;4.708;2023-05-09T01:03:46;101725.88;;;17.68;100.00
19831;BME280;10076;52.008;4.708;2023-05-09T01:11:46;101709.34;;;17.33;100.00
19831;BME280;10076;52.008;4.708;2023-05-09T01:17:38;101703.72;;;17.56;100.00
19831;BME280;10076;52.008;4.708;2023-05-09T01:20:31;101695.19;;;17.62;100.00
19831;BME280;10076;52.008;4.708;2023-05-09T01:26:05;101688.53;;;17.77;100.00
19831;BME280;10076;52.008;4.708;2023-05-09T01:31:25;101678.69;;;17.78;100.00
19831;BME280;10076;52.008;4.708;2023-05-09T01:33:53;101675.66;;;17.62;100.00
19831;BME280;10076;52.008;4.708;2023-05-09T01:36:20;101672.31;;;17.69;100.00
19831;BME280;10076;52.008;4.708;2023-05-09T01:38:47;101672.19;;;17.71;100.00
19831;BME280;10076;52.008;4.708;2023-05-09T01:41:15;101671.78;;;17.75;100.00
19831;BME280;10076;52.008;4.708;2023-05-09T01:43:42;101660.47;;;17.62;100.00
19831;BME280;10076;52.008;4.708;2023-05-09T01:46:10;101660.13;;;17.76;100.00
19831;BME280;10076;52.008;4.708;2023-05-09T01:48:36;101658.81;;;17.71;100.00
19831;BME280;10076;52.008;4.708;2023-05-09T01:51:03;101656.19;;;17.50;100.00
19831;BME280;10076;52.008;4.708;2023-05-09T01:53:30;101659.56;;;17.52;100.00
19831;BME280;10076;52.008;4.708;2023-05-09T01:55:57;101653.84;;;17.57;100.00
19831;BME280;10076;52.008;4.708;2023-05-09T01:58:24;101661.28;;;17.53;100.00
19831;BME280;10076;52.008;4.708;2023-05-09T02:00:51;101656.47;;;17.47;100.00
19831;BME280;10076;52.008;4.708;2023-05-09T02:03:17;101654.84;;;17.35;100.00
19831;BME280;10076;52.008;4.708;2023-05-09T02:05:43;101646.13;;;17.63;100.00
19831;BME280;10076;52.008;4.708;2023-05-09T02:08:10;101646.94;;;17.54;100.00
19831;BME280;10076;52.008;4.708;2023-05-09T02:10:37;101643.94;;;17.48;100.00
19831;BME280;10076;52.008;4.708;2023-05-09T02:13:03;101642.47;;;17.34;100.00
19831;BME280;10076;52.008;4.708;2023-05-09T02:15:29;101640.13;;;17.41;100.00
19831;BME280;10076;52.008;4.708;2023-05-09T02:17:54;101650.91;;;17.39;100.00
19831;BME280;10076;52.008;4.708;2023-05-09T02:20:20;101641.56;;;17.45;100.00
19831;BME280;10076;52.008;4.708;2023-05-09T02:22:45;101633.47;;;17.35;100.00
19831;BME280;10076;52.008;4.708;2023-05-09T02:25:12;101629.97;;;17.35;100.00
19831;BME280;10076;52.008;4.708;2023-05-09T02:27:43;101629.09;;;17.55;100.00
19831;BME280;10076;52.008;4.708;2023-05-09T02:30:13;101637.38;;;17.52;100.00
19831;BME280;10076;52.008;4.708;2023-05-09T02:32:42;101626.84;;;17.60;100.00
19831;BME280;10076;52.008;4.708;2023-05-09T02:35:08;101620.06;;;17.76;100.00
19831;BME280;10076;52.008;4.708;2023-05-09T02:37:35;101618.84;;;17.60;100.00
19831;BME280;10076;52.008;4.708;2023-05-09T02:40:01;101615.16;;;17.51;100.00
19831;BME280;10076;52.008;4.708;2023-05-09T02:42:26;101618.88;;;17.39;100.00
19831;BME280;10076;52.008;4.708;2023-05-09T02:44:54;101618.00;;;17.59;100.00
19831;BME280;10076;52.008;4.708;2023-05-09T02:47:20;101604.06;;;17.56;100.00
19831;BME280;10076;52.008;4.708;2023-05-09T02:49:45;101609.28;;;17.57;100.00
19831;BME280;10076;52.008;4.708;2023-05-09T02:52:12;101611.03;;;17.68;100.00
19831;BME280;10076;52.008;4.708;2023-05-09T02:54:37;101606.66;;;17.67;100.00
19831;BME280;10076;52.008;4.708;2023-05-09T02:57:03;101598.34;;;17.60;100.00
19831;BME280;10076;52.008;4.708;2023-05-09T02:59:28;101601.44;;;17.65;100.00
19831;BME280;10076;52.008;4.708;2023-05-09T03:01:54;101604.50;;;17.61;100.00
19831;BME280;10076;52.008;4.708;2023-05-09T03:04:19;101590.66;;;17.46;100.00
19831;BME280;10076;52.008;4.708;2023-05-09T03:06:44;101590.66;;;17.46;100.00
19831;BME280;10076;52.008;4.708;2023-05-09T03:09:10;101587.47;;;17.52;100.00
19831;BME280;10076;52.008;4.708;2023-05-09T03:11:35;101577.91;;;17.50;100.00
19831;BME280;10076;52.008;4.708;2023-05-09T03:14:01;101578.88;;;17.49;100.00
19831;BME280;10076;52.008;4.708;2023-05-09T03:16:27;101580.19;;;17.54;100.00
19831;BME280;10076;52.008;4.708;2023-05-09T03:18:52;101566.38;;;17.49;100.00
19831;BME280;10076;52.008;4.708;2023-05-09T03:21:17;101570.56;;;17.22;100.00
19831;BME280;10076;52.008;4.708;2023-05-09T03:23:43;101562.69;;;17.21;100.00
19831;BME280;10076;52.008;4.708;2023-05-09T03:26:08;101564.38;;;17.22;100.00
19831;BME280;10076;52.008;4.708;2023-05-09T03:28:34;101569.84;;;17.40;100.00
19831;BME280;10076;52.008;4.708;2023-05-09T03:30:59;101569.94;;;17.09;100.00
19831;BME280;10076;52.008;4.708;2023-05-09T03:33:25;101576.56;;;17.15;100.00
19831;BME280;10076;52.008;4.708;2023-05-09T03:35:50;101569.53;;;17.14;100.00
19831;BME280;10076;52.008;4.708;2023-05-09T03:38:16;101570.00;;;17.19;100.00
19831;BME280;10076;52.008;4.708;2023-05-09T03:40:41;101567.75;;;17.24;100.00
19831;BME280;10076;52.008;4.708;2023-05-09T03:43:06;101559.59;;;17.25;100.00
19831;BME280;10076;52.008;4.708;2023-05-09T03:45:32;101555.91;;;17.17;100.00
19831;BME280;10076;52.008;4.708;2023-05-09T03:47:57;101555.13;;;17.26;100.00
19831;BME280;10076;52.008;4.708;2023-05-09T03:50:23;101554.25;;;17.16;100.00
19831;BME280;10076;52.008;4.708;2023-05-09T03:52:48;101548.34;;;17.12;100.00
19831;BME280;10076;52.008;4.708;2023-05-09T03:55:15;101535.97;;;17.11;100.00
19831;BME280;10076;52.008;4.708;2023-05-09T03:57:40;101536.53;;;17.15;100.00
19831;BME280;10076;52.008;4.708;2023-05-09T04:00:06;101531.63;;;16.90;100.00
19831;BME280;10076;52.008;4.708;2023-05-09T04:02:32;101531.97;;;17.06;100.00
19831;BME280;10076;52.008;4.708;2023-05-09T04:04:58;101527.56;;;17.16;100.00
19831;BME280;10076;52.008;4.708;2023-05-09T04:07:24;101535.88;;;17.22;100.00
19831;BME280;10076;52.008;4.708;2023-05-09T04:09:50;101536.94;;;16.90;100.00
19831;BME280;10076;52.008;4.708;2023-05-09T04:12:15;101533.47;;;16.99;100.00
19831;BME280;10076;52.008;4.708;2023-05-09T04:14:41;101531.16;;;16.85;100.00
19831;BME280;10076;52.008;4.708;2023-05-09T04:17:07;101526.25;;;17.10;100.00
19831;BME280;10076;52.008;4.708;2023-05-09T04:19:32;101517.31;;;17.21;100.00
19831;BME280;10076;52.008;4.708;2023-05-09T04:21:57;101519.22;;;17.30;100.00
19831;BME280;10076;52.008;4.708;2023-05-09T04:24:23;101520.56;;;17.24;100.00
19831;BME280;10076;52.008;4.708;2023-05-09T04:26:48;101513.44;;;17.04;100.00
19831;BME280;10076;52.008;4.708;2023-05-09T04:29:13;101517.97;;;17.13;100.00
19831;BME280;10076;52.008;4.708;2023-05-09T04:31:39;101513.44;;;17.04;100.00
19831;BME280;10076;52.008;4.708;2023-05-09T04:34:04;101522.06;;;16.87;100.00
19831;BME280;10076;52.008;4.708;2023-05-09T04:36:29;101508.94;;;17.05;100.00
19831;BME280;10076;52.008;4.708;2023-05-09T04:38:56;101511.22;;;17.09;100.00
19831;BME280;10076;52.008;4.708;2023-05-09T04:41:21;101517.19;;;17.22;100.00
19831;BME280;10076;52.008;4.708;2023-05-09T04:43:47;101513.28;;;17.06;100.00
19831;BME280;10076;52.008;4.708;2023-05-09T04:46:12;101518.09;;;17.12;100.00
19831;BME280;10076;52.008;4.708;2023-05-09T04:48:37;101505.94;;;17.19;100.00
19831;BME280;10076;52.008;4.708;2023-05-09T04:51:02;101498.75;;;17.19;100.00
19831;BME280;10076;52.008;4.708;2023-05-09T04:53:28;101503.06;;;17.11;100.00
19831;BME280;10076;52.008;4.708;2023-05-09T04:55:53;101491.97;;;17.35;100.00
19831;BME280;10076;52.008;4.708;2023-05-09T04:58:19;101492.50;;;17.30;100.00
19831;BME280;10076;52.008;4.708;2023-05-09T05:00:45;101486.69;;;17.54;100.00
19831;BME280;10076;52.008;4.708;2023-05-09T05:03:11;101481.31;;;17.45;100.00
19831;BME280;10076;52.008;4.708;2023-05-09T05:05:36;101479.88;;;17.32;100.00
19831;BME280;10076;52.008;4.708;2023-05-09T05:08:01;101473.59;;;17.22;100.00
19831;BME280;10076;52.008;4.708;2023-05-09T05:10:27;101469.84;;;17.24;100.00
19831;BME280;10076;52.008;4.708;2023-05-09T05:12:52;101465.75;;;17.20;100.00
19831;BME280;10076;52.008;4.708;2023-05-09T05:15:17;101461.22;;;17.11;100.00
19831;BME280;10076;52.008;4.708;2023-05-09T05:17:43;101459.25;;;17.13;100.00
19831;BME280;10076;52.008;4.708;2023-05-09T05:20:09;101448.97;;;17.29;100.00
19831;BME280;10076;52.008;4.708;2023-05-09T05:22:34;101455.31;;;17.37;100.00
19831;BME280;10076;52.008;4.708;2023-05-09T05:25:00;101441.94;;;17.28;100.00
19831;BME280;10076;52.008;4.708;2023-05-09T05:27:27;101444.22;;;17.51;100.00
19831;BME280;10076;52.008;4.708;2023-05-09T05:29:52;101438.31;;;17.38;100.00
19831;BME280;10076;52.008;4.708;2023-05-09T05:32:18;101442.69;;;17.49;100.00
19831;BME280;10076;52.008;4.708;2023-05-09T05:34:43;101436.63;;;17.37;100.00
19831;BME280;10076;52.008;4.708;2023-05-09T05:37:08;101447.63;;;17.24;100.00
19831;BME280;10076;52.008;4.708;2023-05-09T05:39:33;101443.28;;;17.23;100.00
19831;BME280;10076;52.008;4.708;2023-05-09T05:41:59;101438.38;;;17.18;100.00
19831;BME280;10076;52.008;4.708;2023-05-09T05:44:24;101440.72;;;17.12;100.00
19831;BME280;10076;52.008;4.708;2023-05-09T05:46:49;101441.00;;;17.09;100.00
19831;BME280;10076;52.008;4.708;2023-05-09T05:49:15;101445.72;;;16.96;100.00
19831;BME280;10076;52.008;4.708;2023-05-09T05:51:40;101446.97;;;16.92;100.00
19831;BME280;10076;52.008;4.708;2023-05-09T05:54:05;101442.34;;;16.73;100.00
19831;BME280;10076;52.008;4.708;2023-05-09T05:56:30;101445.53;;;16.88;100.00
19831;BME280;10076;52.008;4.708;2023-05-09T05:58:56;101441.78;;;17.00;100.00
19831;BME280;10076;52.008;4.708;2023-05-09T06:01:21;101438.63;;;16.85;100.00
19831;BME280;10076;52.008;4.708;2023-05-09T06:03:46;101444.72;;;16.97;100.00
19831;BME280;10076;52.008;4.708;2023-05-09T06:06:13;101435.56;;;16.90;100.00
19831;BME280;10076;52.008;4.708;2023-05-09T06:08:39;101432.66;;;16.72;100.00
19831;BME280;10076;52.008;4.708;2023-05-09T06:11:04;101444.25;;;16.82;100.00
19831;BME280;10076;52.008;4.708;2023-05-09T06:13:30;101436.03;;;16.74;100.00
19831;BME280;10076;52.008;4.708;2023-05-09T06:15:55;101439.44;;;16.76;100.00
19831;BME280;10076;52.008;4.708;2023-05-09T06:18:21;101422.41;;;16.68;100.00
19831;BME280;10076;52.008;4.708;2023-05-09T06:20:46;101429.06;;;16.83;100.00
19831;BME280;10076;52.008;4.708;2023-05-09T06:23:11;101424.47;;;16.85;100.00
19831;BME280;10076;52.008;4.708;2023-05-09T06:25:37;101414.53;;;16.96;100.00
19831;BME280;10076;52.008;4.708;2023-05-09T06:28:02;101418.13;;;17.16;100.00
19831;BME280;10076;52.008;4.708;2023-05-09T06:30:27;101417.09;;;16.98;100.00
19831;BME280;10076;52.008;4.708;2023-05-09T06:32:53;101422.03;;;16.82;100.00
19831;BME280;10076;52.008;4.708;2023-05-09T06:35:19;101423.06;;;16.90;100.00
19831;BME280;10076;52.008;4.708;2023-05-09T06:37:44;101416.78;;;16.71;100.00
19831;BME280;10076;52.008;4.708;2023-05-09T06:40:10;101414.47;;;16.87;100.00
19831;BME280;10076;52.008;4.708;2023-05-09T06:42:35;101411.38;;;16.82;100.00
19831;BME280;10076;52.008;4.708;2023-05-09T06:45:00;101411.75;;;16.68;100.00
19831;BME280;10076;52.008;4.708;2023-05-09T06:47:26;101405.06;;;16.83;100.00
19831;BME280;10076;52.008;4.708;2023-05-09T06:49:51;101404.22;;;16.82;100.00
19831;BME280;10076;52.008;4.708;2023-05-09T06:52:17;101401.28;;;16.85;100.00
19831;BME280;10076;52.008;4.708;2023-05-09T06:54:42;101402.25;;;16.84;100.00
19831;BME280;10076;52.008;4.708;2023-05-09T06:57:07;101402.16;;;16.86;100.00
19831;BME280;10076;52.008;4.708;2023-05-09T06:59:33;101391.91;;;16.91;100.00
19831;BME280;10076;52.008;4.708;2023-05-09T07:01:58;101384.00;;;16.80;100.00
19831;BME280;10076;52.008;4.708;2023-05-09T07:04:23;101390.47;;;16.87;100.00
19831;BME280;10076;52.008;4.708;2023-05-09T07:06:49;101384.44;;;16.85;100.00
19831;BME280;10076;52.008;4.708;2023-05-09T07:09:14;101382.59;;;16.85;100.00
19831;BME280;10076;52.008;4.708;2023-05-09T07:11:43;101388.63;;;16.78;100.00
19831;BME280;10076;52.008;4.708;2023-05-09T07:14:08;101384.00;;;16.80;100.00
19831;BME280;10076;52.008;4.708;2023-05-09T07:16:33;101375.63;;;16.94;100.00
19831;BME280;10076;52.008;4.708;2023-05-09T07:18:58;101373.84;;;17.04;100.00
19831;BME280;10076;52.008;4.708;2023-05-09T07:21:24;101365.56;;;17.07;100.00
19831;BME280;10076;52.008;4.708;2023-05-09T07:23:49;101358.91;;;17.01;100.00
19831;BME280;10076;52.008;4.708;2023-05-09T07:26:15;101357.66;;;16.96;100.00
19831;BME280;10076;52.008;4.708;2023-05-09T07:28:40;101354.47;;;17.11;100.00
19831;BME280;10076;52.008;4.708;2023-05-09T07:31:05;101346.63;;;17.10;100.00
19831;BME280;10076;52.008;4.708;2023-05-09T07:33:31;101348.03;;;17.14;100.00
19831;BME280;10076;52.008;4.708;2023-05-09T07:35:59;101353.50;;;17.12;100.00
19831;BME280;10076;52.008;4.708;2023-05-09T07:38:25;101349.16;;;17.21;100.00
19831;BME280;10076;52.008;4.708;2023-05-09T07:40:50;101336.50;;;17.04;100.00
19831;BME280;10076;52.008;4.708;2023-05-09T07:43:17;101345.78;;;17.19;100.00
19831;BME280;10076;52.008;4.708;2023-05-09T07:45:42;101342.13;;;17.20;100.00
19831;BME280;10076;52.008;4.708;2023-05-09T07:48:08;101332.03;;;17.23;100.00
19831;BME280;10076;52.008;4.708;2023-05-09T07:50:33;101325.31;;;17.29;100.00
19831;BME280;10076;52.008;4.708;2023-05-09T07:52:58;101327.53;;;17.24;100.00
19831;BME280;10076;52.008;4.708;2023-05-09T07:55:24;101319.50;;;17.24;100.00
19831;BME280;10076;52.008;4.708;2023-05-09T07:57:49;101321.34;;;17.14;100.00
19831;BME280;10076;52.008;4.708;2023-05-09T08:00:15;101315.44;;;17.20;100.00
19831;BME280;10076;52.008;4.708;2023-05-09T08:02:40;101312.31;;;17.05;100.00
19831;BME280;10076;52.008;4.708;2023-05-09T08:05:06;101305.34;;;17.23;100.00
19831;BME280;10076;52.008;4.708;2023-05-09T08:07:32;101303.91;;;17.19;100.00
19831;BME280;10076;52.008;4.708;2023-05-09T08:09:57;101292.41;;;17.19;100.00
19831;BME280;10076;52.008;4.708;2023-05-09T08:12:22;101294.91;;;17.11;100.00
19831;BME280;10076;52.008;4.708;2023-05-09T08:14:48;101288.19;;;17.16;100.00
19831;BME280;10076;52.008;4.708;2023-05-09T08:17:13;101293.50;;;17.07;100.00
19831;BME280;10076;52.008;4.708;2023-05-09T08:19:38;101280.59;;;17.12;100.00
19831;BME280;10076;52.008;4.708;2023-05-09T08:22:03;101281.25;;;16.95;100.00
19831;BME280;10076;52.008;4.708;2023-05-09T08:24:29;101287.88;;;16.91;100.00
19831;BME280;10076;52.008;4.708;2023-05-09T08:26:56;101290.53;;;16.91;100.00
19831;BME280;10076;52.008;4.708;2023-05-09T08:29:21;101274.22;;;16.94;100.00
19831;BME280;10076;52.008;4.708;2023-05-09T08:31:46;101277.75;;;16.94;100.00
19831;BME280;10076;52.008;4.708;2023-05-09T08:34:11;101269.41;;;16.78;100.00
19831;BME280;10076;52.008;4.708;2023-05-09T08:36:37;101269.72;;;16.75;100.00
19831;BME280;10076;52.008;4.708;2023-05-09T08:39:03;101267.63;;;16.79;100.00
19831;BME280;10076;52.008;4.708;2023-05-09T08:41:32;101266.66;;;16.89;100.00
19831;BME280;10076;52.008;4.708;2023-05-09T08:44:01;101260.28;;;16.62;100.00
19831;BME280;10076;52.008;4.708;2023-05-09T08:46:30;101265.88;;;16.59;100.00
19831;BME280;10076;52.008;4.708;2023-05-09T08:48:58;101269.25;;;16.61;100.00
19831;BME280;10076;52.008;4.708;2023-05-09T08:51:25;101258.91;;;16.77;100.00
19831;BME280;10076;52.008;4.708;2023-05-09T08:53:51;101247.78;;;16.62;100.00
19831;BME280;10076;52.008;4.708;2023-05-09T08:56:17;101255.22;;;16.68;100.00
19831;BME280;10076;52.008;4.708;2023-05-09T08:58:42;101253.31;;;16.80;100.00
19831;BME280;10076;52.008;4.708;2023-05-09T09:01:08;101250.75;;;16.69;100.00
19831;BME280;10076;52.008;4.708;2023-05-09T09:03:36;101248.53;;;16.74;100.00
19831;BME280;10076;52.008;4.708;2023-05-09T09:06:03;101242.50;;;16.91;100.00
19831;BME280;10076;52.008;4.708;2023-05-09T09:08:32;101250.22;;;16.94;100.00
19831;BME280;10076;52.008;4.708;2023-05-09T09:10:59;101242.91;;;16.77;100.00
19831;BME280;10076;52.008;4.708;2023-05-09T09:13:25;101239.50;;;16.65;100.00
19831;BME280;10076;52.008;4.708;2023-05-09T09:15:51;101245.16;;;16.81;100.00
19831;BME280;10076;52.008;4.708;2023-05-09T09:18:22;101236.75;;;16.86;100.00
19831;BME280;10076;52.008;4.708;2023-05-09T09:20:55;101243.91;;;16.95;100.00
19831;BME280;10076;52.008;4.708;2023-05-09T09:23:24;101238.13;;;16.80;100.00
19831;BME280;10076;52.008;4.708;2023-05-09T09:25:59;101228.44;;;16.89;100.00
19831;BME280;10076;52.008;4.708;2023-05-09T09:28:25;101232.69;;;17.01;100.00
19831;BME280;10076;52.008;4.708;2023-05-09T09:30:51;101230.44;;;17.06;100.00
19831;BME280;10076;52.008;4.708;2023-05-09T09:33:21;101229.03;;;16.92;100.00
19831;BME280;10076;52.008;4.708;2023-05-09T09:35:48;101220.84;;;16.84;100.00
19831;BME280;10076;52.008;4.708;2023-05-09T09:38:14;101232.25;;;16.96;100.00
19831;BME280;10076;52.008;4.708;2023-05-09T09:40:39;101217.22;;;16.85;100.00
19831;BME280;10076;52.008;4.708;2023-05-09T09:43:08;101221.03;;;16.92;100.00
19831;BME280;10076;52.008;4.708;2023-05-09T09:45:33;101225.94;;;16.87;100.00
19831;BME280;10076;52.008;4.708;2023-05-09T09:48:04;101225.50;;;16.82;100.00
19831;BME280;10076;52.008;4.708;2023-05-09T09:50:30;101218.75;;;16.69;100.00
19831;BME280;10076;52.008;4.708;2023-05-09T09:52:56;101228.72;;;16.76;100.00
19831;BME280;10076;52.008;4.708;2023-05-09T09:55:23;101216.50;;;16.74;100.00
19831;BME280;10076;52.008;4.708;2023-05-09T09:57:49;101211.50;;;16.99;100.00
19831;BME280;10076;52.008;4.708;2023-05-09T10:00:17;101217.66;;;17.09;100.00
19831;BME280;10076;52.008;4.708;2023-05-09T10:05:28;101214.00;;;16.91;100.00
19831;BME280;10076;52.008;4.708;2023-05-09T10:07:59;101203.72;;;16.87;100.00
19831;BME280;10076;52.008;4.708;2023-05-09T10:10:29;101204.75;;;16.86;100.00
19831;BME280;10076;52.008;4.708;2023-05-09T10:12:57;101207.84;;;16.91;100.00
19831;BME280;10076;52.008;4.708;2023-05-09T10:15:24;101208.09;;;16.97;100.00
19831;BME280;10076;52.008;4.708;2023-05-09T10:17:52;101197.72;;;17.13;100.00
19831;BME280;10076;52.008;4.708;2023-05-09T10:20:18;101199.69;;;17.02;100.00
19831;BME280;10076;52.008;4.708;2023-05-09T10:22:44;101200.09;;;16.97;100.00
19831;BME280;10076;52.008;4.708;2023-05-09T10:25:16;101198.97;;;17.00;100.00
19831;BME280;10076;52.008;4.708;2023-05-09T10:27:44;101198.00;;;17.10;100.00
19831;BME280;10076;52.008;4.708;2023-05-09T10:30:35;101198.97;;;17.19;100.00
19831;BME280;10076;52.008;4.708;2023-05-09T10:33:08;101190.81;;;17.01;100.00
19831;BME280;10076;52.008;4.708;2023-05-09T10:35:45;101191.13;;;16.98;100.00
19831;BME280;10076;52.008;4.708;2023-05-09T10:38:11;101181.56;;;17.05;100.00
19831;BME280;10076;52.008;4.708;2023-05-09T10:40:37;101180.16;;;17.11;100.00
19831;BME280;10076;52.008;4.708;2023-05-09T10:43:04;101176.38;;;17.04;100.00
19831;BME280;10076;52.008;4.708;2023-05-09T10:45:31;101179.06;;;17.04;100.00
19831;BME280;10076;52.008;4.708;2023-05-09T10:47:57;101170.19;;;17.13;100.00
19831;BME280;10076;52.008;4.708;2023-05-09T10:50:23;101167.94;;;16.99;100.00
19831;BME280;10076;52.008;4.708;2023-05-09T10:55:54;101160.66;;;17.01;100.00
19831;BME280;10076;52.008;4.708;2023-05-09T10:58:24;101162.91;;;17.15;100.00
19831;BME280;10076;52.008;4.708;2023-05-09T11:00:52;101162.34;;;17.02;100.00
19831;BME280;10076;52.008;4.708;2023-05-09T11:03:18;101154.72;;;17.26;100.00
19831;BME280;10076;52.008;4.708;2023-05-09T11:05:44;101153.88;;;17.25;100.00
19831;BME280;10076;52.008;4.708;2023-05-09T11:08:24;101155.31;;;17.29;100.00
19831;BME280;10076;52.008;4.708;2023-05-09T11:10:52;101146.00;;;17.24;100.00
19831;BME280;10076;52.008;4.708;2023-05-09T11:13:20;101155.31;;;17.10;100.00
19831;BME280;10076;52.008;4.708;2023-05-09T11:16:02;101155.31;;;17.20;100.00
19831;BME280;10076;52.008;4.708;2023-05-09T11:18:28;101147.44;;;17.18;100.00
19831;BME280;10076;52.008;4.708;2023-05-09T11:20:54;101147.16;;;17.31;100.00
19831;BME280;10076;52.008;4.708;2023-05-09T11:23:21;101152.63;;;17.10;100.00
19831;BME280;10076;52.008;4.708;2023-05-09T11:25:49;101139.00;;;17.13;100.00
19831;BME280;10076;52.008;4.708;2023-05-09T11:28:29;101137.59;;;17.19;100.00
19831;BME280;10076;52.008;4.708;2023-05-09T11:31:27;101130.59;;;17.27;100.00
19831;BME280;10076;52.008;4.708;2023-05-09T11:33:59;101132.28;;;17.00;100.00
19831;BME280;10076;52.008;4.708;2023-05-09T11:36:28;101132.25;;;17.09;100.00
19831;BME280;10076;52.008;4.708;2023-05-09T11:39:04;101131.97;;;17.22;100.00
19831;BME280;10076;52.008;4.708;2023-05-09T11:41:34;101127.91;;;17.27;100.00
19831;BME280;10076;52.008;4.708;2023-05-09T11:44:01;101130.28;;;17.39;100.00
19831;BME280;10076;52.008;4.708;2023-05-09T11:46:26;101128.31;;;17.13;100.00
19831;BME280;10076;52.008;4.708;2023-05-09T11:48:52;101123.28;;;17.10;100.00
19831;BME280;10076;52.008;4.708;2023-05-09T11:51:18;101127.50;;;17.13;100.00
19831;BME280;10076;52.008;4.708;2023-05-09T11:53:45;101126.94;;;17.09;100.00
19831;BME280;10076;52.008;4.708;2023-05-09T11:56:14;101115.44;;;17.09;100.00
19831;BME280;10076;52.008;4.708;2023-05-09T11:58:40;101118.09;;;16.99;100.00
19831;BME280;10076;52.008;4.708;2023-05-09T12:01:06;101113.44;;;17.01;100.00
19831;BME280;10076;52.008;4.708;2023-05-09T12:03:31;101117.94;;;17.01;100.00
19831;BME280;10076;52.008;4.708;2023-05-09T12:05:57;101108.00;;;16.93;100.00
19831;BME280;10076;52.008;4.708;2023-05-09T12:08:23;101103.38;;;16.76;100.00
19831;BME280;10076;52.008;4.708;2023-05-09T12:10:49;101114.72;;;16.88;100.00
19831;BME280;10076;52.008;4.708;2023-05-09T12:13:14;101110.09;;;16.71;100.00
19831;BME280;10076;52.008;4.708;2023-05-09T12:15:40;101101.41;;;16.69;100.00
19831;BME280;10076;52.008;4.708;2023-05-09T12:18:06;101099.31;;;16.63;100.00
19831;BME280;10076;52.008;4.708;2023-05-09T12:20:42;101102.53;;;16.66;100.00
19831;BME280;10076;52.008;4.708;2023-05-09T12:23:12;101097.47;;;16.63;100.00
19831;BME280;10076;52.008;4.708;2023-05-09T12:25:46;101091.28;;;16.72;100.00
19831;BME280;10076;52.008;4.708;2023-05-09T12:28:12;101097.75;;;16.70;100.00
19831;BME280;10076;52.008;4.708;2023-05-09T12:30:38;101099.84;;;16.76;100.00
19831;BME280;10076;52.008;4.708;2023-05-09T12:33:03;101091.59;;;16.79;100.00
19831;BME280;10076;52.008;4.708;2023-05-09T12:35:29;101109.38;;;16.78;100.00
19831;BME280;10076;52.008;4.708;2023-05-09T12:37:55;101099.59;;;16.79;100.00
19831;BME280;10076;52.008;4.708;2023-05-09T12:40:22;101085.94;;;16.72;100.00
19831;BME280;10076;52.008;4.708;2023-05-09T12:42:47;101088.75;;;16.80;100.00
19831;BME280;10076;52.008;4.708;2023-05-09T12:45:12;101079.38;;;16.67;100.00
19831;BME280;10076;52.008;4.708;2023-05-09T12:47:38;101083.56;;;16.60;100.00
19831;BME280;10076;52.008;4.708;2023-05-09T12:50:06;101076.28;;;16.62;100.00
19831;BME280;10076;52.008;4.708;2023-05-09T12:52:33;101080.09;;;16.69;100.00
19831;BME280;10076;52.008;4.708;2023-05-09T12:55:10;101074.75;;;16.50;100.00
19831;BME280;10076;52.008;4.708;2023-05-09T12:57:36;101076.00;;;16.65;100.00